Time;durP1;ratioP1;P1;durP2;ratioP2;P2;SDS_P1;SDS_P2;PMS_P1;PMS_P2;Temp;Humidity;BMP_temperature;BMP_pressure;BME280_temperature;BME280_humidity;BME280_pressure;Samples;Min_cycle;Max_cycle;Signal;HPM_P1;HPM_P2
2023/01/10 00:01:46;;;;;;;15.02;6.05;;;;;;;-148.88;100.00;76183.50;5017748;28;20037;-78
2023/01/10 00:04:11;;;;;;;12.82;6.22;;;;;;;-148.88;100.00;76179.44;5000306;28;20026;-78
2023/01/10 00:06:36;;;;;;;17.67;6.55;;;;;;;-148.88;100.00;76203.81;5016156;28;20132;-76
2023/01/10 00:09:02;;;;;;;14.32;6.45;;;;;;;-148.88;100.00;76203.81;5015972;28;20030;-76
2023/01/10 00:14:11;;;;;;;12.07;5.13;;;;;;;-148.88;100.00;76195.69;5017400;28;20064;-78
2023/01/10 00:16:38;;;;;;;19.92;6.65;;;;;;;-148.88;100.00;76203.81;5018186;28;20124;-78
2023/01/10 00:19:04;;;;;;;12.55;5.32;;;;;;;-148.88;100.00;76203.81;5018465;28;20029;-78
2023/01/10 00:21:30;;;;;;;12.10;4.93;;;;;;;-148.88;100.00;76207.88;5018638;28;20559;-78
2023/01/10 00:23:58;;;;;;;13.35;5.40;;;;;;;-148.88;100.00;76220.06;5018355;28;20048;-78
2023/01/10 00:26:24;;;;;;;12.73;5.35;;;;;;;-148.88;100.00;76213.97;5018378;28;20488;-78
2023/01/10 00:28:50;;;;;;;10.90;4.57;;;;;;;-148.88;100.00;76232.25;5018425;28;20121;-78
2023/01/10 00:31:16;;;;;;;11.38;4.65;;;;;;;-148.88;100.00;76236.31;5018223;28;20068;-78
2023/01/10 00:33:41;;;;;;;9.00;4.53;;;;;;;-148.88;100.00;76252.56;5017482;28;20022;-78
2023/01/10 00:36:08;;;;;;;10.52;4.53;;;;;;;-148.88;100.00;76252.56;5017546;28;20501;-78
2023/01/10 00:38:34;;;;;;;9.30;4.45;;;;;;;-148.88;100.00;76252.56;5017051;28;20030;-77
2023/01/10 00:41:01;;;;;;;9.43;3.10;;;;;;;-148.88;100.00;76264.75;5017676;28;20044;-78
2023/01/10 00:46:11;;;;;;;7.13;3.45;;;;;;;-148.88;100.00;76276.94;5015386;28;20084;-76
2023/01/10 00:48:37;;;;;;;7.68;3.03;;;;;;;-148.88;100.00;76297.25;5015649;28;20018;-78
2023/01/10 00:51:03;;;;;;;6.70;2.60;;;;;;;-148.88;100.00;76297.25;5016950;28;20046;-78
2023/01/10 00:53:28;;;;;;;11.05;2.92;;;;;;;-148.88;100.00;76309.44;5016634;28;20034;-78
2023/01/10 00:55:55;;;;;;;6.38;2.75;;;;;;;-148.88;100.00;76305.38;5018554;23;20541;-85
2023/01/10 00:58:20;;;;;;;6.35;2.90;;;;;;;-148.88;100.00;76311.47;5015275;28;20029;-84
2023/01/10 01:00:48;;;;;;;10.60;3.00;;;;;;;-148.88;100.00;76319.59;5015829;28;20544;-85
2023/01/10 01:03:13;;;;;;;6.05;2.53;;;;;;;-148.88;100.00;76333.81;5015426;28;20517;-85
2023/01/10 01:05:40;;;;;;;5.70;2.72;;;;;;;-148.88;100.00;76346.00;5014784;28;20030;-85
2023/01/10 01:08:06;;;;;;;7.80;2.90;;;;;;;-148.88;100.00;76343.97;5047567;22;20044;-79
2023/01/10 01:10:31;;;;;;;5.18;2.70;;;;;;;-148.88;100.00;76346.00;5038791;28;20405;-78
2023/01/10 01:13:04;;;;;;;9.20;2.55;;;;;;;-148.88;100.00;76350.06;5037091;28;20032;-77
2023/01/10 01:15:34;;;;;;;6.75;2.42;;;;;;;-148.88;100.00;76348.03;5034051;28;20076;-78
2023/01/10 01:17:59;;;;;;;6.63;2.17;;;;;;;-148.88;100.00;76362.25;5017133;28;20029;-79
2023/01/10 01:20:25;;;;;;;6.80;2.22;;;;;;;-148.88;100.00;76374.44;5018079;28;20053;-79
2023/01/10 01:22:50;;;;;;;7.20;2.30;;;;;;;-148.88;100.00;76368.34;5018802;28;20039;-79
2023/01/10 01:25:16;;;;;;;5.72;2.35;;;;;;;-148.88;100.00;76374.44;5019849;28;20026;-79
2023/01/10 01:27:41;;;;;;;11.95;2.30;;;;;;;-148.88;100.00;76386.63;5016890;28;20118;-79
2023/01/10 01:30:08;;;;;;;6.72;2.03;;;;;;;-148.88;100.00;76388.66;5016691;28;20037;-79
2023/01/10 01:32:33;;;;;;;9.32;2.58;;;;;;;-148.88;100.00;76386.63;5015289;28;20041;-79
2023/01/10 01:34:59;;;;;;;5.75;2.03;;;;;;;-148.88;100.00;76382.56;5015749;28;20041;-78
2023/01/10 01:37:24;;;;;;;4.82;2.28;;;;;;;-148.88;100.00;76390.69;5015944;28;20026;-78
2023/01/10 01:39:50;;;;;;;6.85;2.60;;;;;;;-148.88;100.00;76398.81;5017052;28;20033;-79
2023/01/10 01:42:32;;;;;;;8.48;3.50;;;;;;;-148.88;100.00;76408.97;5015454;28;20053;-79
2023/01/10 01:45:21;;;;;;;6.43;2.63;;;;;;;-148.88;100.00;76423.19;5015953;28;20034;-79
2023/01/10 01:47:48;;;;;;;14.90;2.92;;;;;;;-148.88;100.00;76411.00;5017684;28;20089;-78
2023/01/10 01:50:21;;;;;;;10.27;2.80;;;;;;;-148.88;100.00;76419.16;5015969;28;20022;-77
2023/01/10 01:52:50;;;;;;;6.43;2.47;;;;;;;-148.88;100.00;76408.97;5018549;28;20375;-79
2023/01/10 01:55:15;;;;;;;7.55;2.80;;;;;;;-148.88;100.00;76417.09;5018141;28;20075;-78
2023/01/10 01:57:40;;;;;;;9.65;2.80;;;;;;;-148.88;100.00;76425.25;5016762;28;20018;-78
2023/01/10 02:00:07;;;;;;;11.98;3.10;;;;;;;-148.88;100.00;76435.41;5018168;28;20436;-79
2023/01/10 02:02:41;;;;;;;10.50;3.30;;;;;;;-148.88;100.00;76445.56;5016677;28;20026;-78
2023/01/10 02:05:09;;;;;;;;;;;;;;;-148.88;100.00;76437.44;5017460;28;20528;-78
2023/01/10 02:07:40;;;;;;;9.57;2.95;;;;;;;-148.88;100.00;76425.25;5016116;28;19917;-78
2023/01/10 02:10:31;;;;;;;8.60;2.92;;;;;;;-148.88;100.00;76439.47;5015725;28;20036;-78
2023/01/10 02:13:01;;;;;;;13.40;3.53;;;;;;;-148.88;100.00;76447.59;4997894;28;20481;-78
2023/01/10 02:15:27;;;;;;;11.30;4.13;;;;;;;-148.88;100.00;76433.38;4998003;28;20060;-80
2023/01/10 02:17:52;;;;;;;16.40;4.75;;;;;;;-148.88;100.00;76443.53;4999554;28;20022;-80
2023/01/10 02:20:21;;;;;;;13.20;4.20;;;;;;;-148.88;100.00;76445.56;5017084;28;20390;-79
2023/01/10 02:23:26;;;;;;;16.42;5.00;;;;;;;-148.88;100.00;76441.50;5018905;28;20053;-80
2023/01/10 02:26:10;;;;;;;13.88;4.88;;;;;;;-148.88;100.00;76453.69;5001137;28;20022;-79
2023/01/10 02:29:17;;;;;;;15.98;4.38;;;;;;;-148.88;100.00;76443.53;5016422;28;20497;-80
2023/01/10 02:32:11;;;;;;;17.67;5.90;;;;;;;-148.88;100.00;76437.44;5018217;28;20097;-79
2023/01/10 02:34:45;;;;;;;17.95;4.93;;;;;;;-148.88;100.00;76445.56;5016685;28;20025;-80
2023/01/10 02:37:36;;;;;;;18.42;5.53;;;;;;;-148.88;100.00;76447.59;5016803;28;20033;-80
2023/01/10 02:40:04;;;;;;;18.88;5.78;;;;;;;-148.88;100.00;76443.53;5009846;28;20066;-79
2023/01/10 02:42:44;;;;;;;28.08;6.20;;;;;;;-148.88;100.00;76439.47;5018182;28;20463;-78
2023/01/10 02:45:32;;;;;;;24.58;6.03;;;;;;;-148.88;100.00;76443.53;5018554;28;20037;-79
2023/01/10 02:47:58;;;;;;;23.48;5.90;;;;;;;-148.88;100.00;76439.47;5019428;28;20029;-79
2023/01/10 02:50:34;;;;;;;18.65;6.82;;;;;;;-148.88;100.00;76439.47;5019330;28;20030;-78
2023/01/10 02:53:09;;;;;;;16.92;5.78;;;;;;;-148.88;100.00;76439.47;5017377;28;20045;-79
2023/01/10 02:56:13;;;;;;;15.93;6.32;;;;;;;-148.88;100.00;76441.50;4998917;28;20029;-79
2023/01/10 02:58:54;;;;;;;13.57;6.10;;;;;;;-148.88;100.00;76447.59;5016941;28;20026;-79
2023/01/10 03:01:24;;;;;;;21.77;6.20;;;;;;;-148.88;100.00;76445.56;4999191;28;20037;-79
2023/01/10 03:04:05;;;;;;;24.13;7.32;;;;;;;-148.88;100.00;76435.41;4998844;28;20371;-79
2023/01/10 03:06:40;;;;;;;18.80;6.40;;;;;;;-148.88;100.00;76447.59;5001275;28;20555;-79
2023/01/10 03:09:23;;;;;;;21.35;6.35;;;;;;;-148.88;100.00;76463.84;5001809;28;20030;-78
2023/01/10 03:11:53;;;;;;;13.93;5.03;;;;;;;-148.88;100.00;76465.88;5000360;28;20083;-80
2023/01/10 03:14:25;;;;;;;18.63;6.53;;;;;;;-148.88;100.00;76474.00;5016130;28;20037;-79
2023/01/10 03:16:58;;;;;;;19.02;6.43;;;;;;;-148.88;100.00;76484.16;5016324;28;20029;-79
2023/01/10 03:19:28;;;;;;;24.33;6.78;;;;;;;-148.88;100.00;76488.22;4998689;28;20022;-79
2023/01/10 03:21:58;;;;;;;28.02;7.15;;;;;;;-148.88;100.00;76496.34;5016042;28;20187;-79
2023/01/10 03:24:31;;;;;;;18.33;6.30;;;;;;;-148.88;100.00;76484.16;4998796;28;20144;-79
2023/01/10 03:27:04;;;;;;;17.90;6.32;;;;;;;-148.88;100.00;76490.25;5016771;28;20026;-79
2023/01/10 03:29:49;;;;;;;20.27;7.18;;;;;;;-148.88;100.00;76502.44;5016423;28;20032;-79
2023/01/10 03:32:19;;;;;;;14.98;6.18;;;;;;;-148.88;100.00;76494.31;5016959;28;20026;-79
2023/01/10 03:34:45;;;;;;;19.52;6.18;;;;;;;-148.88;100.00;76496.34;4998251;28;20076;-78
2023/01/10 03:37:23;;;;;;;25.42;6.90;;;;;;;-148.88;100.00;76522.75;5002042;28;20026;-79
2023/01/10 03:39:57;;;;;;;16.92;5.68;;;;;;;-148.88;100.00;76524.78;5019792;28;20159;-78
2023/01/10 03:44:42;;;;;;;21.67;6.03;;;;;;;-148.88;100.00;76541.03;5020858;28;20045;-78
2023/01/10 03:45:23;;;;;;;23.00;6.53;;;;;;;-148.88;100.00;76553.22;5022684;28;20030;-78
2023/01/10 03:47:52;;;;;;;15.32;5.85;;;;;;;-148.88;100.00;76549.16;5022283;28;20044;-79
2023/01/10 03:50:21;;;;;;;21.58;6.07;;;;;;;-148.88;100.00;76571.50;5021254;28;20097;-79
2023/01/10 03:52:46;;;;;;;22.05;6.00;;;;;;;-148.88;100.00;76569.47;5003534;28;20021;-79
2023/01/10 03:55:16;;;;;;;15.00;5.20;;;;;;;-148.88;100.00;76561.34;5003091;28;20026;-78
2023/01/10 03:57:44;;;;;;;20.20;5.38;;;;;;;-148.88;100.00;76561.34;5002931;28;20021;-78
2023/01/10 04:00:10;;;;;;;16.33;5.75;;;;;;;-148.88;100.00;76559.31;5020146;28;20512;-78
2023/01/10 04:02:36;;;;;;;19.48;5.95;;;;;;;-148.88;100.00;76573.53;5002664;28;20096;-78
2023/01/10 04:05:01;;;;;;;16.50;4.90;;;;;;;-148.88;100.00;76561.34;5020737;28;20466;-78
2023/01/10 04:07:26;;;;;;;18.55;5.28;;;;;;;-148.88;100.00;76557.28;5002548;28;20061;-77
2023/01/10 04:09:52;;;;;;;18.15;5.55;;;;;;;-148.88;100.00;76569.47;5020520;28;20520;-78
2023/01/10 04:12:17;;;;;;;18.48;5.63;;;;;;;-148.88;100.00;76569.47;5020089;28;20037;-78
2023/01/10 04:14:45;;;;;;;23.00;5.25;;;;;;;-148.88;100.00;76579.63;5002907;28;20033;-78
2023/01/10 04:17:10;;;;;;;19.85;5.30;;;;;;;-148.88;100.00;76571.50;5002300;28;20032;-78
2023/01/10 04:19:36;;;;;;;16.00;5.88;;;;;;;-148.88;100.00;76581.66;5022426;28;20026;-77
2023/01/10 04:22:01;;;;;;;15.43;4.47;;;;;;;-148.88;100.00;76563.38;5022066;28;20042;-78
2023/01/10 04:24:26;;;;;;;15.43;5.13;;;;;;;-148.88;100.00;76577.59;5001416;28;20072;-76
2023/01/10 04:26:51;;;;;;;16.98;5.75;;;;;;;-148.88;100.00;76585.72;5002121;28;20026;-77
2023/01/10 04:29:17;;;;;;;18.15;6.38;;;;;;;-148.88;100.00;76599.94;5022886;28;20026;-78
2023/01/10 04:31:42;;;;;;;17.10;6.43;;;;;;;-148.88;100.00;76595.88;5022568;28;20109;-79
2023/01/10 04:34:08;;;;;;;16.10;5.32;;;;;;;-148.88;100.00;76597.91;5005589;28;20033;-79
2023/01/10 04:36:35;;;;;;;23.05;6.00;;;;;;;-148.88;100.00;76595.88;5022571;28;20030;-78
2023/01/10 04:39:01;;;;;;;20.02;5.88;;;;;;;-148.88;100.00;76614.19;5004547;28;20605;-79
2023/01/10 04:41:26;;;;;;;19.48;4.80;;;;;;;-148.88;100.00;76601.97;5021714;28;20073;-79
2023/01/10 04:43:52;;;;;;;17.45;4.25;;;;;;;-148.88;100.00;76606.06;5021150;28;20060;-79
2023/01/10 04:46:17;;;;;;;15.45;5.15;;;;;;;-148.88;100.00;76601.97;5018580;28;20030;-79
2023/01/10 04:48:42;;;;;;;15.23;4.60;;;;;;;-148.88;100.00;76606.06;5018525;28;20026;-80
2023/01/10 04:51:07;;;;;;;18.55;4.53;;;;;;;-148.88;100.00;76618.25;5001109;28;20060;-79
2023/01/10 04:53:33;;;;;;;13.82;4.28;;;;;;;-148.88;100.00;76622.31;5017870;28;20032;-77
2023/01/10 04:56:06;;;;;;;14.35;5.25;;;;;;;-148.88;100.00;76614.19;5000217;28;20061;-78
2023/01/10 04:58:33;;;;;;;11.50;4.47;;;;;;;-148.88;100.00;76624.34;5002447;28;20022;-79
2023/01/10 05:00:58;;;;;;;20.05;4.53;;;;;;;-148.88;100.00;76638.56;5018303;28;20029;-78
2023/01/10 05:03:25;;;;;;;18.92;4.18;;;;;;;-148.88;100.00;76634.50;5017036;28;20087;-79
2023/01/10 05:05:50;;;;;;;15.85;4.38;;;;;;;-148.88;100.00;76634.50;4999792;28;20475;-78
2023/01/10 05:08:16;;;;;;;22.50;4.50;;;;;;;-148.88;100.00;76632.47;5016425;28;20026;-78
2023/01/10 05:10:41;;;;;;;14.27;3.50;;;;;;;-148.88;100.00;76634.50;5016923;28;20022;-79
2023/01/10 05:13:06;;;;;;;18.05;4.95;;;;;;;-148.88;100.00;76634.50;5016387;28;20120;-78
2023/01/10 05:15:31;;;;;;;12.40;4.18;;;;;;;-148.88;100.00;76630.44;4999275;28;20025;-78
2023/01/10 05:17:58;;;;;;;19.67;4.22;;;;;;;-148.88;100.00;76634.50;4999125;28;20021;-79
2023/01/10 05:20:23;;;;;;;11.63;3.92;;;;;;;-148.88;100.00;76630.44;5016416;28;20539;-78
2023/01/10 05:22:48;;;;;;;11.60;3.95;;;;;;;-148.88;100.00;76626.38;5016505;28;20112;-79
2023/01/10 05:25:14;;;;;;;11.60;4.65;;;;;;;-148.88;100.00;76618.25;5017369;28;20026;-79
2023/01/10 05:27:41;;;;;;;13.93;4.22;;;;;;;-148.88;100.00;76626.38;5000717;28;20026;-79
2023/01/10 05:30:11;;;;;;;10.65;4.25;;;;;;;-148.88;100.00;76634.50;5002168;28;20026;-78
2023/01/10 05:32:36;;;;;;;15.75;4.13;;;;;;;-148.88;100.00;76634.50;5021463;28;20037;-79
2023/01/10 05:35:03;;;;;;;14.48;4.05;;;;;;;-148.88;100.00;76626.38;5017802;28;20026;-79
2023/01/10 05:37:29;;;;;;;12.18;3.92;;;;;;;-148.88;100.00;76646.69;4999119;28;20120;-81
2023/01/10 05:39:55;;;;;;;14.80;4.75;;;;;;;-148.88;100.00;76648.72;5016482;28;20029;-81
2023/01/10 05:42:20;;;;;;;15.30;4.28;;;;;;;-148.88;100.00;76662.94;5017292;28;20037;-82
2023/01/10 05:44:46;;;;;;;16.00;4.07;;;;;;;-148.88;100.00;76667.00;4998211;28;20022;-78
2023/01/10 05:47:11;;;;;;;10.93;4.07;;;;;;;-148.88;100.00;76654.81;4998460;28;20059;-79
2023/01/10 05:49:37;;;;;;;12.35;4.32;;;;;;;-148.88;100.00;76683.25;4997995;28;20478;-79
2023/01/10 05:52:02;;;;;;;15.10;3.80;;;;;;;-148.88;100.00;76662.94;4998500;28;20026;-79
2023/01/10 05:54:28;;;;;;;16.00;4.53;;;;;;;-148.88;100.00;76667.00;5015466;28;20080;-79
2023/01/10 05:56:54;;;;;;;18.55;4.40;;;;;;;-148.88;100.00;76691.38;4998277;28;20056;-79
2023/01/10 05:59:19;;;;;;;19.73;4.93;;;;;;;-148.88;100.00;76695.44;5015457;28;20024;-79
2023/01/10 06:01:44;;;;;;;19.75;4.40;;;;;;;-148.88;100.00;76689.34;5016014;28;20038;-79
2023/01/10 06:04:09;;;;;;;11.23;4.47;;;;;;;-148.88;100.00;76695.44;5015754;28;20030;-78
2023/01/10 06:06:35;;;;;;;16.10;5.15;;;;;;;-148.88;100.00;76713.72;5015302;28;20030;-78
2023/01/10 06:09:00;;;;;;;12.40;4.15;;;;;;;-148.88;100.00;76715.75;5015084;28;20112;-77
2023/01/10 06:11:28;;;;;;;18.55;4.95;;;;;;;-148.88;100.00;76727.94;4998947;28;20022;-77
2023/01/10 06:13:55;;;;;;;11.93;4.85;;;;;;;-148.88;100.00;76729.97;5018238;28;20084;-78
2023/01/10 06:16:21;;;;;;;16.27;4.25;;;;;;;-148.88;100.00;76717.78;5017118;28;20061;-78
2023/01/10 06:18:46;;;;;;;12.48;4.65;;;;;;;-148.88;100.00;76740.13;4998816;28;20026;-79
2023/01/10 06:21:11;;;;;;;15.40;5.07;;;;;;;-148.88;100.00;76744.19;5016702;28;20560;-77
2023/01/10 06:23:38;;;;;;;11.55;4.20;;;;;;;-148.88;100.00;76750.28;4997963;28;20041;-78
2023/01/10 06:26:03;;;;;;;16.05;4.97;;;;;;;-148.88;100.00;76750.28;4997699;28;20454;-79
2023/01/10 06:28:28;;;;;;;16.80;5.68;;;;;;;-148.88;100.00;76746.22;5015092;28;20036;-78
2023/01/10 06:30:54;;;;;;;12.77;5.30;;;;;;;-148.88;100.00;76746.22;4997472;28;20042;-79
2023/01/10 06:33:19;;;;;;;17.88;5.00;;;;;;;-148.88;100.00;76748.25;5014780;28;20453;-77
2023/01/10 06:35:45;;;;;;;17.15;5.95;;;;;;;-148.88;100.00;76746.22;5014562;28;20026;-78
2023/01/10 06:38:11;;;;;;;15.65;6.93;;;;;;;-148.88;100.00;76740.13;4997555;28;20399;-79
2023/01/10 06:40:36;;;;;;;18.45;7.60;;;;;;;-148.88;100.00;76748.25;4998094;28;20053;-79
2023/01/10 06:43:02;;;;;;;28.73;7.57;;;;;;;-148.88;100.00;76748.25;5015318;28;20085;-79
2023/01/10 06:45:27;;;;;;;26.48;7.45;;;;;;;-148.88;100.00;76746.22;5017565;28;20041;-79
2023/01/10 06:47:52;;;;;;;23.80;8.13;;;;;;;-148.88;100.00;76760.44;5017439;28;20030;-79
2023/01/10 06:50:18;;;;;;;23.55;8.98;;;;;;;-148.88;100.00;76760.44;4998628;28;20116;-79
2023/01/10 06:52:45;;;;;;;17.90;7.78;;;;;;;-148.88;100.00;76762.50;5015484;28;20061;-79
2023/01/10 06:55:11;;;;;;;22.20;8.00;;;;;;;-148.88;100.00;76766.56;5015939;28;20026;-79
2023/01/10 06:57:37;;;;;;;16.98;8.50;;;;;;;-148.88;100.00;76772.66;4998236;28;20071;-79
2023/01/10 07:00:08;;;;;;;20.95;9.07;;;;;;;-148.88;100.00;76768.59;5015177;28;20063;-78
2023/01/10 07:02:33;;;;;;;19.92;9.35;;;;;;;-148.88;100.00;76762.50;4996928;28;20433;-78
2023/01/10 07:04:58;;;;;;;24.70;10.13;;;;;;;-148.88;100.00;76764.53;5014973;28;20022;-79
2023/01/10 07:07:24;;;;;;;29.17;10.32;;;;;;;-148.88;100.00;76768.59;5015427;28;20054;-79
2023/01/10 07:09:49;;;;;;;20.70;9.18;;;;;;;-148.88;100.00;76768.59;5015393;28;20045;-79
2023/01/10 07:12:14;;;;;;;22.30;8.77;;;;;;;-148.88;100.00;76768.59;5000804;28;20340;-78
2023/01/10 07:14:40;;;;;;;22.92;9.00;;;;;;;-148.88;100.00;76770.63;5000670;28;20036;-80
2023/01/10 07:17:05;;;;;;;23.63;9.70;;;;;;;-148.88;100.00;76776.72;5000569;28;20032;-79
2023/01/10 07:19:30;;;;;;;24.17;9.25;;;;;;;-148.88;100.00;76766.56;5018502;28;20022;-80
2023/01/10 07:21:56;;;;;;;27.48;9.07;;;;;;;-148.88;100.00;76776.72;5019174;28;20064;-78
2023/01/10 07:24:21;;;;;;;25.65;9.02;;;;;;;-148.88;100.00;76776.72;5018629;28;20025;-77
2023/01/10 07:26:46;;;;;;;30.50;9.90;;;;;;;-148.88;100.00;76776.72;5001572;28;20476;-78
2023/01/10 07:29:12;;;;;;;23.98;9.18;;;;;;;-148.88;100.00;76770.63;5018563;28;20471;-79
2023/01/10 07:31:37;;;;;;;22.80;9.25;;;;;;;-148.88;100.00;76782.81;5019169;28;20032;-80
2023/01/10 07:34:02;;;;;;;29.73;9.82;;;;;;;-148.88;100.00;76788.91;5018699;28;20547;-78
2023/01/10 07:36:27;;;;;;;28.40;11.05;;;;;;;-148.88;100.00;76784.84;5019749;28;20101;-78
2023/01/10 07:38:53;;;;;;;28.40;10.82;;;;;;;-148.88;100.00;76780.78;5021289;28;20018;-79
2023/01/10 07:41:18;;;;;;;25.00;10.32;;;;;;;-148.88;100.00;76780.78;5018927;28;20018;-80
2023/01/10 07:43:43;;;;;;;28.60;10.88;;;;;;;-148.88;100.00;76788.91;5018179;28;20061;-79
2023/01/10 07:46:10;;;;;;;25.60;11.30;;;;;;;-148.88;100.00;76782.81;5018938;28;20022;-79
2023/01/10 07:48:37;;;;;;;24.35;10.90;;;;;;;-148.88;100.00;76784.84;5018521;28;20049;-79
2023/01/10 07:51:03;;;;;;;23.33;11.13;;;;;;;-148.88;100.00;76792.97;5018823;28;20030;-79
2023/01/10 07:53:28;;;;;;;25.13;12.27;;;;;;;-148.88;100.00;76807.19;5018504;28;20033;-79
2023/01/10 07:55:58;;;;;;;28.08;11.88;;;;;;;-148.88;100.00;76805.16;5018980;28;20030;-78
2023/01/10 07:58:23;;;;;;;23.33;11.27;;;;;;;-148.88;100.00;76795.00;5018273;28;20437;-78
2023/01/10 08:00:49;;;;;;;32.78;12.23;;;;;;;-148.88;100.00;76792.97;5000764;28;20535;-78
2023/01/10 08:03:15;;;;;;;31.83;13.40;;;;;;;-148.88;100.00;76827.50;5000594;28;20034;-78
2023/01/10 08:05:41;;;;;;;26.90;12.18;;;;;;;-148.88;100.00;76811.25;5018264;28;20021;-78
2023/01/10 08:08:08;;;;;;;29.83;12.73;;;;;;;-148.88;100.00;76817.34;5019538;28;20136;-78
2023/01/10 08:10:34;;;;;;;30.38;11.77;;;;;;;-148.88;100.00;76817.34;4996461;28;20116;-79
2023/01/10 08:12:59;;;;;;;33.65;12.05;;;;;;;-148.88;100.00;76817.34;5017778;28;20022;-79
2023/01/10 08:15:24;;;;;;;23.20;10.77;;;;;;;-148.88;100.00;76813.28;5017999;28;20379;-78
2023/01/10 08:17:50;;;;;;;30.25;11.52;;;;;;;-148.88;100.00;76817.34;4999941;28;20442;-80
2023/01/10 08:20:15;;;;;;;30.95;12.80;;;;;;;-148.88;100.00;76817.34;5018254;28;20030;-78
2023/01/10 08:22:40;;;;;;;32.35;10.52;;;;;;;-148.88;100.00;76813.28;5017347;28;20394;-80
2023/01/10 08:25:06;;;;;;;23.23;10.27;;;;;;;-148.88;100.00;76817.34;5000061;28;20017;-80
2023/01/10 08:27:32;;;;;;;25.92;10.90;;;;;;;-148.88;100.00;76829.53;4999597;28;20060;-78
2023/01/10 08:29:57;;;;;;;30.70;11.50;;;;;;;-148.88;100.00;76833.59;5017560;28;20053;-79
2023/01/10 08:32:22;;;;;;;28.55;10.80;;;;;;;-148.88;100.00;76829.53;5017468;28;20076;-78
2023/01/10 08:34:47;;;;;;;36.67;11.45;;;;;;;-148.88;100.00;76823.44;5017531;28;20076;-78
2023/01/10 08:37:13;;;;;;;25.98;11.68;;;;;;;-148.88;100.00;76833.59;5001298;28;20037;-80
2023/01/10 08:39:38;;;;;;;34.42;12.55;;;;;;;-148.88;100.00;76837.66;5000313;28;20426;-79
2023/01/10 08:42:04;;;;;;;31.38;12.07;;;;;;;-148.88;100.00;76827.50;5000320;28;20030;-79
2023/01/10 08:44:29;;;;;;;28.23;11.07;;;;;;;-148.88;100.00;76833.59;4999875;28;20021;-79
2023/01/10 08:46:55;;;;;;;21.48;9.27;;;;;;;-148.88;100.00;76825.47;5000003;28;20062;-79
2023/01/10 08:49:20;;;;;;;22.55;10.43;;;;;;;-148.88;100.00;76829.53;5017253;28;20399;-79
2023/01/10 08:51:46;;;;;;;26.55;10.93;;;;;;;-148.88;100.00;76825.47;5017105;28;20017;-79
2023/01/10 08:54:11;;;;;;;21.73;9.38;;;;;;;-148.88;100.00;76833.59;5017420;28;20033;-78
2023/01/10 08:56:38;;;;;;;28.08;10.25;;;;;;;-148.88;100.00;76825.47;5016944;28;20073;-78
2023/01/10 08:59:04;;;;;;;23.13;9.02;;;;;;;-148.88;100.00;76835.63;4999241;28;20022;-79
2023/01/10 09:01:29;;;;;;;23.35;8.02;;;;;;;-148.88;100.00;76833.59;5016706;28;20032;-79
2023/01/10 09:03:55;;;;;;;19.83;7.95;;;;;;;-148.88;100.00;76831.56;5016791;28;20029;-78
2023/01/10 09:06:20;;;;;;;23.70;8.75;;;;;;;-148.88;100.00;76833.59;5016767;28;20057;-79
2023/01/10 09:08:45;;;;;;;26.63;9.02;;;;;;;-148.88;100.00;76825.47;5016682;28;20032;-76
2023/01/10 09:11:10;;;;;;;22.45;9.07;;;;;;;-148.88;100.00;76833.59;4999125;28;20034;-79
2023/01/10 09:13:36;;;;;;;24.70;9.32;;;;;;;-148.88;100.00;76835.63;4999469;28;20116;-79
2023/01/10 09:16:01;;;;;;;30.48;9.63;;;;;;;-148.88;100.00;76837.66;5017489;28;20029;-78
2023/01/10 09:18:27;;;;;;;27.15;10.07;;;;;;;-148.88;100.00;76837.66;5016868;28;20569;-80
2023/01/10 09:20:52;;;;;;;28.50;8.65;;;;;;;-148.88;100.00;76837.66;5016313;28;20076;-78
2023/01/10 09:23:20;;;;;;;22.60;8.57;;;;;;;-148.88;100.00;76845.78;5017875;28;20026;-78
2023/01/10 09:25:46;;;;;;;20.92;9.52;;;;;;;-148.88;100.00;76853.91;5017120;28;20029;-77
2023/01/10 09:28:12;;;;;;;26.27;9.82;;;;;;;-148.88;100.00;76841.72;5032282;28;20339;-79
2023/01/10 09:30:38;;;;;;;33.88;10.43;;;;;;;-148.88;100.00;76845.78;4998897;28;20474;-79
2023/01/10 09:33:04;;;;;;;28.70;9.63;;;;;;;-148.88;100.00;76853.91;5016153;28;20152;-79
2023/01/10 09:35:31;;;;;;;26.00;10.07;;;;;;;-148.88;100.00;76849.84;5016490;28;20100;-79
2023/01/10 09:37:59;;;;;;;28.88;9.95;;;;;;;-148.88;100.00;76851.88;5016239;28;20029;-79
2023/01/10 09:40:54;;;;;;;22.63;9.55;;;;;;;-148.88;100.00;76853.91;5031906;28;20505;-79
2023/01/10 09:43:30;;;;;;;27.02;11.60;;;;;;;-148.88;100.00;76857.97;5016539;28;20037;-79
2023/01/10 09:46:07;;;;;;;29.77;11.60;;;;;;;-148.88;100.00;76849.84;4998653;28;20425;-79
2023/01/10 09:48:47;;;;;;;29.35;11.73;;;;;;;-148.88;100.00;76857.97;5015733;28;20026;-79
2023/01/10 09:51:32;;;;;;;27.23;12.30;;;;;;;-148.88;100.00;76853.91;4999878;28;20030;-80
2023/01/10 09:54:02;;;;;;;33.88;11.68;;;;;;;-148.88;100.00;76857.97;4998322;28;20065;-78
2023/01/10 09:56:30;;;;;;;30.08;11.80;;;;;;;-148.88;100.00;76845.78;5015433;28;20033;-78
2023/01/10 09:58:57;;;;;;;24.75;10.45;;;;;;;-148.88;100.00;76853.91;4998108;28;20029;-79
2023/01/10 10:01:28;;;;;;;33.90;10.52;;;;;;;-148.88;100.00;76857.97;4997556;28;20022;-79
2023/01/10 10:04:03;;;;;;;37.53;11.27;;;;;;;-148.88;100.00;76876.25;5016925;28;20502;-79
2023/01/10 10:06:28;;;;;;;28.35;11.15;;;;;;;-148.88;100.00;76862.03;4998309;28;20080;-78
2023/01/10 10:08:56;;;;;;;28.88;10.35;;;;;;;-148.88;100.00;76868.13;4998036;28;20034;-78
2023/01/10 10:11:24;;;;;;;42.28;12.15;;;;;;;-148.88;100.00;76868.13;4998681;28;20025;-79
2023/01/10 10:14:15;;;;;;;25.63;10.75;;;;;;;-148.88;100.00;76870.16;5015430;28;20026;-78
2023/01/10 10:17:27;;;;;;;28.90;10.98;;;;;;;-148.88;100.00;76862.03;5016306;28;20028;-79
2023/01/10 10:20:02;;;;;;;23.17;10.48;;;;;;;-148.88;100.00;76866.09;5015792;28;20478;-79
2023/01/10 10:22:45;;;;;;;23.15;9.88;;;;;;;-148.88;100.00;76866.09;4998190;28;20041;-77
2023/01/10 10:25:48;;;;;;;28.27;9.80;;;;;;;-148.88;100.00;76851.88;5016215;28;20033;-78
2023/01/10 10:28:30;;;;;;;24.10;9.05;;;;;;;-148.88;100.00;76841.72;5016225;28;20021;-78
2023/01/10 10:31:20;;;;;;;25.60;10.05;;;;;;;-148.88;100.00;76849.84;5015959;28;20036;-79
2023/01/10 10:33:55;;;;;;;27.48;11.30;;;;;;;-148.88;100.00;76839.69;5031391;28;20021;-79
2023/01/10 10:36:25;;;;;;;25.98;10.35;;;;;;;-148.88;100.00;76825.47;5016378;28;20028;-79
2023/01/10 10:38:55;;;;;;;29.75;11.30;;;;;;;-148.88;100.00;76821.41;5016210;28;20393;-79
2023/01/10 10:41:43;;;;;;;27.10;10.30;;;;;;;-148.88;100.00;76817.34;5015179;28;20104;-78
2023/01/10 10:44:35;;;;;;;28.92;10.65;;;;;;;-148.88;100.00;76813.28;4997365;28;20037;-78
2023/01/10 10:47:01;;;;;;;36.55;9.82;;;;;;;-148.88;100.00;76805.16;5018927;28;20032;-80
2023/01/10 10:49:36;;;;;;;29.20;10.52;;;;;;;-148.88;100.00;76803.13;5019301;28;20029;-79
2023/01/10 10:52:09;;;;;;;30.80;10.35;;;;;;;-148.88;100.00;76805.16;5001901;28;20025;-80
2023/01/10 10:54:36;;;;;;;30.95;10.63;;;;;;;-148.88;100.00;76788.91;5020252;28;20057;-79
2023/01/10 10:57:01;;;;;;;36.53;11.50;;;;;;;-148.88;100.00;76788.91;5001915;28;20049;-78
2023/01/10 10:59:27;;;;;;;32.50;12.52;;;;;;;-148.88;100.00;76792.97;5019888;28;20084;-78
2023/01/10 11:01:52;;;;;;;27.95;11.15;;;;;;;-148.88;100.00;76788.91;5020122;28;20036;-78
2023/01/10 11:04:20;;;;;;;33.67;11.60;;;;;;;-148.88;100.00;76786.88;5035310;28;20370;-77
2023/01/10 11:06:49;;;;;;;36.33;12.30;;;;;;;-148.88;100.00;76792.97;5019834;28;20030;-79
2023/01/10 11:12:18;;;;;;;30.88;10.98;;;;;;;-148.88;100.00;76768.59;5004652;28;20129;-78
2023/01/10 11:14:46;;;;;;;32.83;11.95;;;;;;;-148.88;100.00;76772.66;5001779;28;20025;-77
2023/01/10 11:17:22;;;;;;;33.55;11.55;;;;;;;-148.88;100.00;76778.75;5019909;28;20029;-79